Time;durP1;ratioP1;P1;durP2;ratioP2;P2;SDS_P1;SDS_P2;PMS_P1;PMS_P2;Temp;Humidity;BMP_temperature;BMP_pressure;BME280_temperature;BME280_humidity;BME280_pressure;Samples;Min_cycle;Max_cycle;Signal;HPM_P1;HPM_P2
2023/03/02 00:01:49;;;;;;;14.85;6.28;;;1.60;99.90;;;;;;5034443;28;25131;-73
2023/03/02 00:04:21;;;;;;;17.25;6.82;;;1.70;99.90;;;;;;5044662;28;25085;-75
2023/03/02 00:06:49;;;;;;;15.40;7.47;;;1.70;99.90;;;;;;5041015;28;25066;-73
2023/03/02 00:09:15;;;;;;;17.98;7.50;;;1.70;99.90;;;;;;5036486;28;25059;-72
2023/03/02 00:11:41;;;;;;;17.70;7.88;;;1.70;99.90;;;;;;5035652;28;25064;-73
2023/03/02 00:14:06;;;;;;;14.85;7.50;;;1.60;99.90;;;;;;5037615;28;25106;-75
2023/03/02 00:16:33;;;;;;;23.75;7.65;;;1.60;99.90;;;;;;5039039;28;25079;-74
2023/03/02 00:18:58;;;;;;;18.85;8.25;;;1.60;99.90;;;;;;5039369;28;25161;-73
2023/03/02 00:21:24;;;;;;;23.17;9.57;;;1.60;99.90;;;;;;5038926;28;25075;-72
2023/03/02 00:23:51;;;;;;;17.98;8.20;;;1.60;99.90;;;;;;5038078;28;25061;-72
2023/03/02 00:26:17;;;;;;;19.85;9.00;;;1.60;99.90;;;;;;5036237;28;25146;-73
2023/03/02 00:28:42;;;;;;;23.67;9.55;;;1.60;99.90;;;;;;5036294;28;25080;-72
2023/03/02 00:31:08;;;;;;;21.63;10.35;;;1.60;99.90;;;;;;5024873;28;25082;-74
2023/03/02 00:33:34;;;;;;;26.77;11.02;;;1.60;99.90;;;;;;5035071;28;25062;-75
2023/03/02 00:36:00;;;;;;;21.90;10.77;;;1.50;99.90;;;;;;5033920;28;25102;-73
2023/03/02 00:38:26;;;;;;;25.75;10.43;;;1.50;99.90;;;;;;5033207;28;25099;-74
2023/03/02 00:40:54;;;;;;;31.77;13.80;;;1.50;99.90;;;;;;5031727;28;25169;-76
2023/03/02 00:43:21;;;;;;;29.20;11.85;;;1.50;99.90;;;;;;5032919;28;24975;-75
2023/03/02 00:45:47;;;;;;;29.70;13.02;;;1.50;99.90;;;;;;5031479;28;25047;-75
2023/03/02 00:48:13;;;;;;;29.15;13.05;;;1.50;99.90;;;;;;5032176;28;25115;-73
2023/03/02 00:50:40;;;;;;;27.40;12.90;;;1.50;99.90;;;;;;5032986;28;25147;-76
2023/03/02 00:53:08;;;;;;;32.83;14.45;;;1.50;99.90;;;;;;5031530;28;25102;-74
2023/03/02 00:55:35;;;;;;;32.90;14.57;;;1.50;99.90;;;;;;5022308;28;25079;-73
2023/03/02 00:58:01;;;;;;;30.13;13.63;;;1.50;99.90;;;;;;5030989;28;25121;-73
2023/03/02 01:00:29;;;;;;;33.95;15.27;;;1.50;99.90;;;;;;5031725;28;25080;-73
2023/03/02 01:02:56;;;;;;;34.20;14.82;;;1.50;99.90;;;;;;5033497;28;25062;-73
2023/03/02 01:05:21;;;;;;;39.40;15.70;;;1.50;99.90;;;;;;5008923;28;25075;-74
2023/03/02 01:07:47;;;;;;;36.10;15.95;;;1.50;99.90;;;;;;5032605;28;25072;-75
2023/03/02 01:10:13;;;;;;;41.97;17.05;;;1.50;99.90;;;;;;5029449;28;25121;-73
2023/03/02 01:12:39;;;;;;;38.88;16.33;;;1.50;99.90;;;;;;5031960;28;25077;-73
2023/03/02 01:15:06;;;;;;;43.13;17.15;;;1.50;99.90;;;;;;5030901;28;25057;-74
2023/03/02 01:17:32;;;;;;;40.38;17.45;;;1.50;99.90;;;;;;5031810;28;25078;-73
2023/03/02 01:19:58;;;;;;;50.80;18.98;;;1.50;99.90;;;;;;5031743;28;25077;-73
2023/03/02 01:22:23;;;;;;;43.42;18.77;;;1.50;99.90;;;;;;5030087;28;25052;-74
2023/03/02 01:24:49;;;;;;;44.85;18.70;;;1.50;99.90;;;;;;5030681;28;25076;-75
2023/03/02 01:27:15;;;;;;;50.25;20.42;;;1.50;99.90;;;;;;5031290;28;25137;-72
2023/03/02 01:29:41;;;;;;;52.97;20.95;;;1.50;99.90;;;;;;5021323;28;25047;-75
2023/03/02 01:32:06;;;;;;;48.90;21.52;;;1.50;99.90;;;;;;5030026;28;25061;-73
2023/03/02 01:34:32;;;;;;;55.63;22.65;;;1.50;99.90;;;;;;5030623;28;25097;-73
2023/03/02 01:36:58;;;;;;;47.83;22.02;;;1.50;99.90;;;;;;5030398;28;25075;-72
2023/03/02 01:39:23;;;;;;;58.88;22.20;;;1.50;99.90;;;;;;5030392;28;25072;-72
2023/03/02 01:41:51;;;;;;;55.75;21.52;;;1.50;99.90;;;;;;5031706;28;25163;-73
2023/03/02 01:44:40;;;;;;;59.55;23.02;;;1.50;99.90;;;;;;5030409;28;25072;-73
2023/03/02 01:47:26;;;;;;;62.20;23.38;;;1.50;99.90;;;;;;5031211;28;25070;-73
2023/03/02 01:49:57;;;;;;;58.83;22.65;;;1.50;99.90;;;;;;5031709;28;25085;-77
2023/03/02 01:52:22;;;;;;;58.67;25.00;;;1.50;99.90;;;;;;5030928;28;25081;-75
2023/03/02 01:54:52;;;;;;;55.30;24.85;;;1.60;99.90;;;;;;5031476;28;25094;-75
2023/03/02 01:57:29;;;;;;;56.40;23.42;;;1.60;99.90;;;;;;5030702;28;25090;-73
2023/03/02 02:00:01;;;;;;;62.67;25.23;;;1.60;99.90;;;;;;5012445;28;25139;-73
2023/03/02 02:02:27;;;;;;;62.67;23.83;;;1.50;99.90;;;;;;5030175;28;25101;-74
2023/03/02 02:04:54;;;;;;;63.80;25.02;;;1.50;99.90;;;;;;5030498;28;25066;-73
2023/03/02 02:07:20;;;;;;;75.35;26.15;;;1.40;99.90;;;;;;5031067;28;25087;-74
2023/03/02 02:09:49;;;;;;;74.22;26.45;;;1.50;99.90;;;;;;5030312;28;25179;-73
2023/03/02 02:12:18;;;;;;;74.50;27.02;;;1.50;99.90;;;;;;5029299;28;25075;-72
2023/03/02 02:14:48;;;;;;;70.82;26.67;;;1.50;99.90;;;;;;5031359;28;25079;-73
2023/03/02 02:17:15;;;;;;;64.28;26.35;;;1.50;99.90;;;;;;5029946;28;25134;-74
2023/03/02 02:20:18;;;;;;;76.65;27.35;;;1.50;99.90;;;;;;5031512;28;25073;-75
2023/03/02 02:23:11;;;;;;;69.40;27.85;;;1.60;99.90;;;;;;5031205;28;25064;-74
2023/03/02 02:25:46;;;;;;;76.10;28.02;;;1.60;99.90;;;;;;5031423;28;25145;-75
2023/03/02 02:28:18;;;;;;;61.15;24.92;;;1.60;99.90;;;;;;5020707;28;25055;-73
2023/03/02 02:30:46;;;;;;;71.38;27.95;;;1.60;99.90;;;;;;5023281;28;25055;-74
2023/03/02 02:33:19;;;;;;;79.40;29.90;;;1.60;99.90;;;;;;5033324;28;25100;-73
2023/03/02 02:35:45;;;;;;;;;;;1.60;99.90;;;;;;5021245;28;25183;-72
2023/03/02 02:38:12;;;;;;;76.07;28.83;;;1.60;99.90;;;;;;5034910;28;24072;-75
2023/03/02 02:40:47;;;;;;;86.47;27.65;;;1.50;99.90;;;;;;5016768;28;25067;-74
2023/03/02 02:43:15;;;;;;;69.90;27.73;;;1.50;99.90;;;;;;5033978;28;25166;-73
2023/03/02 02:45:41;;;;;;;81.78;29.98;;;1.60;99.90;;;;;;5022259;28;25062;-76
2023/03/02 02:48:29;;;;;;;74.00;26.95;;;1.60;99.90;;;;;;5021973;28;25088;-75
2023/03/02 02:50:59;;;;;;;78.57;28.20;;;1.60;99.90;;;;;;5033851;28;25163;-74
2023/03/02 02:53:57;;;;;;;78.43;28.60;;;1.60;99.90;;;;;;5032561;28;25059;-73
2023/03/02 02:56:32;;;;;;;81.18;28.83;;;1.60;99.90;;;;;;5028143;28;25050;-75
2023/03/02 02:59:05;;;;;;;79.75;26.92;;;1.60;99.90;;;;;;5034061;28;25066;-71
2023/03/02 03:01:33;;;;;;;83.40;29.15;;;1.60;99.90;;;;;;5032482;28;25062;-74
2023/03/02 03:04:04;;;;;;;74.47;28.83;;;1.60;99.90;;;;;;5032671;28;25073;-75
2023/03/02 03:06:41;;;;;;;76.60;25.90;;;1.70;99.90;;;;;;5021179;28;25053;-72
2023/03/02 03:09:08;;;;;;;80.18;28.52;;;1.60;99.90;;;;;;5034097;28;25083;-74
2023/03/02 03:11:36;;;;;;;75.40;26.48;;;1.60;99.90;;;;;;5033343;28;25074;-74
2023/03/02 03:14:04;;;;;;;78.00;27.48;;;1.60;99.90;;;;;;5020735;28;25070;-73
2023/03/02 03:16:31;;;;;;;79.45;30.02;;;1.60;99.90;;;;;;5021688;28;25088;-76
2023/03/02 03:19:04;;;;;;;76.20;27.15;;;1.60;99.90;;;;;;5039064;28;25079;-77
2023/03/02 03:21:29;;;;;;;89.88;28.20;;;1.60;99.90;;;;;;5041679;28;25121;-73
2023/03/02 03:23:55;;;;;;;83.80;29.55;;;1.60;99.90;;;;;;5025922;28;25084;-75
2023/03/02 03:26:22;;;;;;;76.57;26.15;;;1.70;99.90;;;;;;5035926;28;25069;-73
2023/03/02 03:28:47;;;;;;;87.43;27.48;;;1.70;99.90;;;;;;5036530;28;25072;-72
2023/03/02 03:31:13;;;;;;;80.78;28.15;;;1.80;99.90;;;;;;5036252;28;25056;-75
2023/03/02 03:33:39;;;;;;;92.20;28.40;;;1.80;99.90;;;;;;5025631;28;25082;-74
2023/03/02 03:36:05;;;;;;;81.10;27.33;;;1.80;99.90;;;;;;5037484;28;25047;-72
2023/03/02 03:38:30;;;;;;;82.22;28.10;;;1.90;99.90;;;;;;5040027;28;25057;-73
2023/03/02 03:40:56;;;;;;;86.55;26.88;;;1.90;99.90;;;;;;5023735;28;25048;-73
2023/03/02 03:43:21;;;;;;;76.75;28.80;;;1.90;99.90;;;;;;5033866;28;25076;-74
2023/03/02 03:45:47;;;;;;;88.22;28.63;;;1.90;99.90;;;;;;5034887;28;25095;-73
2023/03/02 03:48:12;;;;;;;78.07;27.00;;;1.90;99.90;;;;;;5032556;28;25071;-74
2023/03/02 03:50:38;;;;;;;84.80;30.48;;;1.90;99.90;;;;;;5033580;28;25128;-72
2023/03/02 03:53:04;;;;;;;79.70;26.90;;;1.90;99.90;;;;;;5032218;28;25131;-73
2023/03/02 03:55:30;;;;;;;82.20;29.63;;;2.00;99.90;;;;;;5034379;28;25063;-73
2023/03/02 03:57:55;;;;;;;80.38;28.25;;;2.00;99.90;;;;;;5034166;28;25075;-74
2023/03/02 04:00:21;;;;;;;79.00;27.85;;;2.00;99.90;;;;;;5035004;28;25056;-73
2023/03/02 04:02:47;;;;;;;81.15;26.95;;;2.00;99.90;;;;;;5040731;28;25091;-74
2023/03/02 04:05:13;;;;;;;75.45;28.23;;;2.00;99.90;;;;;;5035510;28;25072;-75
2023/03/02 04:07:39;;;;;;;84.82;29.40;;;2.10;99.90;;;;;;5030971;28;25055;-75
2023/03/02 04:10:07;;;;;;;76.78;27.05;;;2.10;99.90;;;;;;5034918;28;25070;-74
2023/03/02 04:12:35;;;;;;;70.28;26.67;;;2.10;99.90;;;;;;5040894;28;25055;-73
2023/03/02 04:15:02;;;;;;;76.88;28.58;;;2.10;99.90;;;;;;5043399;28;25110;-73
2023/03/02 04:17:28;;;;;;;72.53;26.83;;;2.10;99.90;;;;;;5040088;28;25067;-74
2023/03/02 04:19:55;;;;;;;73.95;26.05;;;2.10;99.90;;;;;;5031912;28;25058;-73
2023/03/02 04:22:21;;;;;;;84.25;29.13;;;2.10;99.90;;;;;;5037418;28;25081;-74
2023/03/02 04:24:48;;;;;;;73.75;25.67;;;2.10;99.90;;;;;;5043229;28;25091;-74
2023/03/02 04:27:14;;;;;;;76.20;25.98;;;2.00;99.90;;;;;;5046388;28;25080;-75
2023/03/02 04:29:40;;;;;;;71.47;26.98;;;2.10;99.90;;;;;;5025206;28;25088;-74
2023/03/02 04:32:07;;;;;;;66.75;25.33;;;2.10;99.90;;;;;;5028956;28;25163;-74
2023/03/02 04:34:32;;;;;;;75.18;27.02;;;2.00;99.90;;;;;;5029986;28;25076;-73
2023/03/02 04:36:58;;;;;;;76.80;26.88;;;2.00;99.90;;;;;;5017173;28;25116;-74
2023/03/02 04:39:24;;;;;;;76.47;27.33;;;2.00;99.90;;;;;;5031943;28;25059;-73
2023/03/02 04:41:50;;;;;;;69.45;26.65;;;2.00;99.90;;;;;;5028785;28;25067;-74
2023/03/02 04:44:17;;;;;;;76.80;27.58;;;2.00;99.90;;;;;;5029438;28;25101;-73
2023/03/02 04:46:43;;;;;;;78.68;26.60;;;2.00;99.90;;;;;;5028636;28;25065;-74
2023/03/02 04:49:08;;;;;;;79.18;26.85;;;2.00;99.90;;;;;;5016329;28;25093;-75
2023/03/02 04:51:38;;;;;;;73.97;26.55;;;2.00;99.90;;;;;;5032852;28;25114;-74
2023/03/02 04:54:07;;;;;;;71.28;25.90;;;2.00;99.90;;;;;;5030216;28;25102;-73
2023/03/02 04:56:33;;;;;;;80.70;27.10;;;2.00;99.90;;;;;;5029710;28;25106;-75
2023/03/02 04:58:59;;;;;;;76.00;25.45;;;1.90;99.90;;;;;;5028374;28;25092;-73
2023/03/02 05:01:25;;;;;;;77.55;24.30;;;2.00;99.90;;;;;;5017340;28;25077;-74
2023/03/02 05:03:51;;;;;;;69.90;25.60;;;1.90;99.90;;;;;;5028931;28;25134;-73
2023/03/02 05:06:17;;;;;;;79.00;27.50;;;1.90;99.90;;;;;;5026117;28;25066;-74
2023/03/02 05:08:43;;;;;;;74.47;26.08;;;1.90;99.90;;;;;;5027590;28;25147;-71
2023/03/02 05:11:20;;;;;;;76.70;27.02;;;1.90;99.90;;;;;;5026494;28;25072;-75
2023/03/02 05:13:51;;;;;;;73.10;24.42;;;1.90;99.90;;;;;;5027557;28;25061;-74
2023/03/02 05:16:18;;;;;;;76.53;25.60;;;1.90;99.90;;;;;;5026738;28;25098;-74
2023/03/02 05:18:44;;;;;;;74.43;25.45;;;2.00;99.90;;;;;;5026719;28;25078;-73
2023/03/02 05:21:10;;;;;;;80.22;27.77;;;1.90;99.90;;;;;;5027189;28;25202;-73
2023/03/02 05:23:36;;;;;;;77.25;26.50;;;1.90;99.90;;;;;;5027883;28;25066;-74
2023/03/02 05:26:01;;;;;;;71.30;24.75;;;1.90;99.90;;;;;;5028190;28;25086;-75
2023/03/02 05:28:27;;;;;;;71.20;27.33;;;1.90;99.90;;;;;;5027611;28;25086;-75
2023/03/02 05:30:53;;;;;;;74.63;25.98;;;1.90;99.90;;;;;;5026847;28;25062;-76
2023/03/02 05:33:19;;;;;;;83.45;25.73;;;1.90;99.90;;;;;;5029456;28;25057;-74
2023/03/02 05:35:46;;;;;;;73.30;26.85;;;1.90;99.90;;;;;;5034230;28;25047;-74
2023/03/02 05:38:11;;;;;;;82.72;26.13;;;1.90;99.90;;;;;;5037583;28;25158;-77
2023/03/02 05:40:39;;;;;;;81.75;26.45;;;2.00;99.90;;;;;;5028177;28;25093;-74
2023/03/02 05:43:05;;;;;;;70.80;26.20;;;2.00;99.90;;;;;;5016160;28;25095;-76
2023/03/02 05:45:33;;;;;;;64.15;25.60;;;1.90;99.90;;;;;;5017996;28;25090;-72
2023/03/02 05:47:59;;;;;;;71.95;25.30;;;2.00;99.90;;;;;;5025721;28;25101;-74
2023/03/02 05:50:25;;;;;;;66.78;24.00;;;2.00;99.90;;;;;;5026618;28;25158;-74
2023/03/02 05:52:50;;;;;;;71.70;23.58;;;2.00;99.90;;;;;;5026503;28;25144;-74
2023/03/02 05:55:17;;;;;;;64.32;24.83;;;2.00;99.90;;;;;;5027268;28;25077;-73
2023/03/02 05:57:43;;;;;;;64.68;22.67;;;2.00;99.90;;;;;;5025699;28;25106;-72
2023/03/02 06:00:11;;;;;;;67.93;24.27;;;2.00;99.90;;;;;;5026712;28;25062;-73
2023/03/02 06:02:37;;;;;;;68.18;24.42;;;1.90;99.90;;;;;;5027777;28;25063;-72
2023/03/02 06:05:04;;;;;;;70.13;24.90;;;2.00;99.90;;;;;;5029449;28;25049;-72
2023/03/02 06:07:30;;;;;;;72.07;25.83;;;1.90;99.90;;;;;;5031811;28;25071;-74
2023/03/02 06:09:56;;;;;;;63.97;23.23;;;1.90;99.90;;;;;;5030520;28;25080;-75
2023/03/02 06:12:21;;;;;;;73.97;23.95;;;1.90;99.90;;;;;;5030211;28;25074;-74
2023/03/02 06:14:48;;;;;;;67.53;24.48;;;1.90;99.90;;;;;;5031343;28;25070;-73
2023/03/02 06:17:15;;;;;;;57.65;21.15;;;1.90;99.90;;;;;;5030063;28;25060;-74
2023/03/02 06:19:40;;;;;;;65.90;24.20;;;1.90;99.90;;;;;;5029920;28;25093;-75
2023/03/02 06:22:06;;;;;;;64.22;24.05;;;1.90;99.90;;;;;;5029435;28;25086;-75
2023/03/02 06:24:32;;;;;;;65.32;21.92;;;1.90;99.90;;;;;;5028259;28;25063;-75
2023/03/02 06:26:57;;;;;;;65.80;23.25;;;1.90;99.90;;;;;;5035499;28;25065;-74
2023/03/02 06:29:23;;;;;;;79.05;24.90;;;1.90;99.90;;;;;;5028396;28;25120;-74
2023/03/02 06:31:48;;;;;;;72.68;24.02;;;1.90;99.90;;;;;;5032167;28;25068;-74
2023/03/02 06:34:14;;;;;;;68.53;23.98;;;1.90;99.90;;;;;;5029586;28;25096;-74
2023/03/02 06:36:40;;;;;;;74.25;25.00;;;1.90;99.90;;;;;;5034610;28;25069;-77
2023/03/02 06:39:07;;;;;;;76.93;25.08;;;1.90;99.90;;;;;;5017221;28;25096;-75
2023/03/02 06:41:33;;;;;;;76.95;24.60;;;1.90;99.90;;;;;;5040211;28;25064;-74
2023/03/02 06:44:04;;;;;;;72.22;25.48;;;1.80;99.90;;;;;;5045318;28;25109;-75
2023/03/02 06:46:30;;;;;;;70.45;23.02;;;1.80;99.90;;;;;;5050070;28;25055;-76
2023/03/02 06:48:55;;;;;;;71.75;24.73;;;1.90;99.90;;;;;;5040566;28;25149;-75
2023/03/02 06:51:21;;;;;;;73.80;23.00;;;1.90;99.90;;;;;;5036171;28;25087;-78
2023/03/02 06:53:46;;;;;;;73.63;24.58;;;1.90;99.90;;;;;;5047467;28;25063;-75
2023/03/02 06:56:12;;;;;;;71.65;24.48;;;1.90;99.90;;;;;;5048299;28;25144;-75
2023/03/02 06:58:38;;;;;;;71.07;23.98;;;1.90;99.90;;;;;;5045981;28;25077;-75
2023/03/02 07:01:06;;;;;;;70.05;24.08;;;1.90;99.90;;;;;;5046946;28;25088;-74
2023/03/02 07:03:32;;;;;;;72.32;24.00;;;1.90;99.90;;;;;;5037010;28;25073;-74
2023/03/02 07:05:59;;;;;;;72.80;22.80;;;1.90;99.90;;;;;;5048789;28;25075;-74
2023/03/02 07:08:24;;;;;;;73.05;22.63;;;2.00;99.90;;;;;;5044324;28;25056;-74
2023/03/02 07:10:50;;;;;;;65.18;25.42;;;2.00;99.90;;;;;;5038635;28;25067;-71
2023/03/02 07:13:15;;;;;;;71.63;25.33;;;1.90;99.90;;;;;;5034780;28;25069;-73
2023/03/02 07:15:41;;;;;;;64.13;22.08;;;2.00;99.90;;;;;;5030991;28;25107;-74
2023/03/02 07:18:07;;;;;;;63.08;23.50;;;2.00;99.90;;;;;;5030213;28;25148;-75
2023/03/02 07:20:33;;;;;;;64.45;22.92;;;2.00;99.90;;;;;;5018711;28;25155;-73
2023/03/02 07:22:59;;;;;;;65.22;21.75;;;2.00;99.90;;;;;;5033588;28;25111;-73
2023/03/02 07:25:25;;;;;;;59.38;24.45;;;2.00;99.90;;;;;;5037295;28;25060;-74
2023/03/02 07:27:50;;;;;;;63.13;22.10;;;2.00;99.90;;;;;;5039439;28;25070;-73
2023/03/02 07:30:19;;;;;;;58.25;20.90;;;2.00;99.90;;;;;;5043380;28;25051;-73
2023/03/02 07:32:45;;;;;;;66.78;22.00;;;1.90;99.90;;;;;;5046368;28;25094;-76
2023/03/02 07:35:11;;;;;;;65.80;23.65;;;2.00;99.90;;;;;;5050461;28;25045;-75
2023/03/02 07:37:37;;;;;;;66.75;22.60;;;2.00;99.90;;;;;;5051563;28;25060;-75
2023/03/02 07:40:03;;;;;;;59.03;21.73;;;2.00;99.90;;;;;;5045883;28;25075;-73
2023/03/02 07:42:30;;;;;;;58.70;21.85;;;1.90;99.90;;;;;;5032654;28;25079;-74
2023/03/02 07:44:56;;;;;;;59.13;22.35;;;2.00;99.90;;;;;;5031622;28;25082;-74
2023/03/02 07:47:22;;;;;;;56.15;20.45;;;1.90;99.90;;;;;;5046281;28;25060;-78
2023/03/02 07:49:48;;;;;;;68.53;23.35;;;1.90;99.90;;;;;;5052750;28;25081;-76
2023/03/02 07:52:13;;;;;;;66.43;21.90;;;2.00;99.90;;;;;;5050560;28;25078;-74
2023/03/02 07:54:39;;;;;;;68.30;22.55;;;2.00;99.90;;;;;;5043209;28;25068;-73
2023/03/02 07:57:05;;;;;;;57.45;21.65;;;2.10;99.90;;;;;;5030706;28;25069;-74
2023/03/02 07:59:30;;;;;;;58.28;21.23;;;2.10;99.90;;;;;;5020665;28;25053;-73
2023/03/02 08:01:56;;;;;;;58.88;21.83;;;2.00;99.90;;;;;;5029134;28;25087;-76
2023/03/02 08:04:22;;;;;;;68.70;22.13;;;2.10;99.90;;;;;;5031797;28;25061;-73
2023/03/02 08:06:48;;;;;;;64.68;21.02;;;2.10;99.90;;;;;;5030287;28;25057;-75
2023/03/02 08:09:13;;;;;;;56.38;21.90;;;2.10;99.90;;;;;;5029514;28;25062;-74
2023/03/02 08:11:40;;;;;;;53.45;20.45;;;2.10;99.90;;;;;;5028474;28;25114;-75
2023/03/02 08:14:06;;;;;;;52.17;20.83;;;2.10;99.90;;;;;;5030068;28;25046;-72
2023/03/02 08:16:32;;;;;;;59.83;20.52;;;2.10;99.90;;;;;;5028789;28;25043;-76
2023/03/02 08:18:57;;;;;;;51.10;20.10;;;2.10;99.90;;;;;;5028442;28;25061;-74
2023/03/02 08:21:25;;;;;;;49.72;19.70;;;2.10;99.90;;;;;;5029197;28;25170;-74
2023/03/02 08:23:50;;;;;;;50.55;19.95;;;2.20;99.90;;;;;;5038355;28;25132;-75
2023/03/02 08:26:18;;;;;;;48.58;18.98;;;2.20;99.90;;;;;;5026495;28;25056;-74
2023/03/02 08:28:44;;;;;;;56.97;22.00;;;2.10;99.90;;;;;;5036296;28;25058;-73
2023/03/02 08:31:12;;;;;;;49.35;19.33;;;2.20;99.90;;;;;;5029822;28;25054;-73
2023/03/02 08:33:37;;;;;;;46.88;18.30;;;2.30;99.90;;;;;;5035904;28;25085;-76
2023/03/02 08:36:06;;;;;;;56.33;20.92;;;2.30;99.90;;;;;;5037817;28;25076;-72
2023/03/02 08:38:32;;;;;;;56.95;18.98;;;2.30;99.90;;;;;;5033268;28;25066;-75
2023/03/02 08:41:02;;;;;;;45.35;18.27;;;2.30;99.90;;;;;;5033882;28;25063;-73
2023/03/02 08:43:29;;;;;;;56.60;20.60;;;2.40;99.90;;;;;;5030030;28;25061;-73
2023/03/02 08:45:56;;;;;;;42.33;17.65;;;2.30;99.90;;;;;;5038674;28;25112;-75
2023/03/02 08:48:23;;;;;;;45.67;17.38;;;2.40;99.90;;;;;;5027339;28;25118;-75
2023/03/02 08:50:57;;;;;;;41.70;16.38;;;2.30;99.90;;;;;;5042331;28;25106;-78
2023/03/02 08:53:23;;;;;;;43.78;16.05;;;2.40;99.90;;;;;;5042313;28;25064;-72
2023/03/02 08:55:48;;;;;;;44.33;17.17;;;2.60;99.90;;;;;;5043465;28;25115;-77
2023/03/02 08:58:14;;;;;;;47.63;17.15;;;2.70;99.90;;;;;;5045599;28;25104;-75
2023/03/02 09:00:40;;;;;;;45.35;17.67;;;2.70;99.90;;;;;;5042084;28;25077;-72
2023/03/02 09:03:06;;;;;;;37.08;15.13;;;2.80;99.90;;;;;;5033384;28;25137;-76
2023/03/02 09:05:32;;;;;;;42.13;17.60;;;2.90;99.90;;;;;;5045395;28;25064;-76
2023/03/02 09:07:57;;;;;;;42.45;17.20;;;3.00;99.90;;;;;;5049094;28;25075;-78
2023/03/02 09:10:23;;;;;;;36.60;15.50;;;3.00;99.90;;;;;;5047550;28;25067;-77
2023/03/02 09:12:49;;;;;;;45.05;17.23;;;3.10;99.90;;;;;;5047494;28;25078;-78
2023/03/02 09:15:14;;;;;;;42.58;16.83;;;3.10;99.90;;;;;;5046901;28;25111;-74
2023/03/02 09:17:40;;;;;;;36.53;16.05;;;3.10;99.90;;;;;;5045205;28;25063;-78
2023/03/02 09:20:07;;;;;;;38.95;15.35;;;3.20;99.90;;;;;;5046242;28;25071;-78
2023/03/02 09:22:34;;;;;;;37.40;14.88;;;3.40;99.90;;;;;;5045432;28;25068;-77
2023/03/02 09:25:00;;;;;;;39.00;15.02;;;3.50;99.90;;;;;;5040993;28;25105;-76
2023/03/02 09:27:26;;;;;;;33.20;14.00;;;3.50;99.90;;;;;;5037784;28;25070;-75
2023/03/02 09:29:51;;;;;;;35.20;13.23;;;3.50;99.90;;;;;;5033681;28;25063;-75
2023/03/02 09:32:17;;;;;;;34.80;13.70;;;3.70;99.90;;;;;;5019246;28;25049;-75
2023/03/02 09:34:42;;;;;;;31.33;13.23;;;4.00;99.90;;;;;;5030014;28;25066;-75
2023/03/02 09:37:08;;;;;;;33.53;14.13;;;4.20;99.90;;;;;;5029019;28;25059;-75
2023/03/02 09:39:34;;;;;;;31.77;13.93;;;4.30;99.90;;;;;;5034361;28;25130;-74
2023/03/02 09:42:27;;;;;;;35.33;13.93;;;4.20;99.90;;;;;;5032400;28;25094;-75
2023/03/02 09:45:04;;;;;;;33.03;13.73;;;4.10;99.90;;;;;;5022668;28;25142;-74
2023/03/02 09:47:29;;;;;;;28.73;11.27;;;4.30;99.90;;;;;;5032637;28;25062;-76
2023/03/02 09:50:14;;;;;;;32.80;13.75;;;4.40;99.90;;;;;;5033500;28;25061;-73
2023/03/02 09:53:19;;;;;;;33.33;12.30;;;4.60;99.90;;;;;;5031552;28;25100;-74
2023/03/02 09:55:49;;;;;;;31.30;11.35;;;4.60;99.90;;;;;;5031737;28;25068;-75
2023/03/02 09:58:19;;;;;;;31.10;11.60;;;4.70;99.90;;;;;;5033426;28;25082;-71
2023/03/02 10:00:46;;;;;;;26.48;11.25;;;4.70;99.90;;;;;;5035121;28;25173;-74
2023/03/02 10:03:26;;;;;;;31.67;13.02;;;4.70;99.90;;;;;;5038875;28;25055;-76
2023/03/02 10:05:53;;;;;;;30.33;12.88;;;4.90;99.90;;;;;;5034325;28;25061;-77
2023/03/02 10:08:26;;;;;;;33.78;12.82;;;4.70;99.90;;;;;;5030545;28;25055;-76
2023/03/02 10:10:56;;;;;;;;;;;4.80;99.90;;;;;;5033578;28;25053;-72
2023/03/02 10:13:27;;;;;;;25.35;11.35;;;4.80;99.90;;;;;;5032190;28;25050;-73
2023/03/02 10:16:12;;;;;;;36.05;12.35;;;4.90;99.90;;;;;;5032153;28;25107;-74
2023/03/02 10:18:47;;;;;;;28.45;12.32;;;4.80;99.90;;;;;;5021842;28;25065;-72
2023/03/02 10:21:20;;;;;;;26.20;12.68;;;4.90;99.90;;;;;;5033166;28;25076;-70
2023/03/02 10:24:06;;;;;;;30.42;11.10;;;5.00;99.90;;;;;;5033040;28;25077;-71
2023/03/02 10:26:44;;;;;;;25.95;9.95;;;5.00;99.90;;;;;;5034231;28;25148;-73
2023/03/02 10:29:30;;;;;;;23.15;9.50;;;5.20;99.90;;;;;;5031907;28;25141;-74
2023/03/02 10:32:18;;;;;;;24.65;9.93;;;5.30;99.90;;;;;;5031434;28;25073;-73
2023/03/02 10:34:43;;;;;;;23.27;10.68;;;5.20;99.90;;;;;;5030986;28;25057;-73
2023/03/02 10:37:16;;;;;;;22.70;8.80;;;5.30;99.90;;;;;;5019887;28;25065;-72
2023/03/02 10:39:41;;;;;;;23.50;9.77;;;5.30;99.90;;;;;;5021501;28;25071;-74
2023/03/02 10:42:15;;;;;;;26.25;10.45;;;5.50;99.90;;;;;;5028973;28;25076;-73
2023/03/02 10:44:46;;;;;;;22.40;10.57;;;5.60;99.90;;;;;;5030892;28;25085;-75
2023/03/02 10:47:27;;;;;;;31.70;11.25;;;5.50;99.90;;;;;;5034146;28;25102;-72
2023/03/02 10:49:54;;;;;;;20.90;9.48;;;5.50;99.90;;;;;;5036185;28;25077;-74
2023/03/02 10:52:25;;;;;;;20.30;9.63;;;5.80;99.90;;;;;;5036408;28;25059;-72
2023/03/02 10:55:11;;;;;;;25.65;9.68;;;5.90;99.90;;;;;;5036215;28;25081;-75
2023/03/02 10:57:39;;;;;;;24.02;10.45;;;5.80;99.90;;;;;;5034836;28;25063;-74
2023/03/02 11:00:21;;;;;;;22.05;9.23;;;5.90;99.90;;;;;;5027482;28;25075;-72
2023/03/02 11:02:52;;;;;;;21.38;10.10;;;5.70;99.90;;;;;;5039327;28;25066;-73
2023/03/02 11:05:21;;;;;;;24.60;10.90;;;5.90;99.90;;;;;;5037901;28;25104;-73
2023/03/02 11:08:01;;;;;;;26.38;10.05;;;6.10;99.90;;;;;;5036917;28;25073;-73
2023/03/02 11:10:35;;;;;;;21.33;9.35;;;6.40;99.90;;;;;;5024257;28;25100;-75
2023/03/02 11:13:02;;;;;;;21.92;9.88;;;6.60;99.90;;;;;;5034322;28;25084;-70
2023/03/02 11:15:31;;;;;;;27.15;10.32;;;6.50;99.90;;;;;;5037700;28;25097;-71
2023/03/02 11:18:10;;;;;;;22.23;9.75;;;6.50;99.90;;;;;;5038554;28;25066;-73
2023/03/02 11:20:43;;;;;;;24.58;10.35;;;6.50;99.90;;;;;;5035353;28;25067;-73
2023/03/02 11:23:31;;;;;;;21.88;10.18;;;6.50;99.90;;;;;;5035376;28;25064;-73
2023/03/02 11:26:04;;;;;;;19.00;9.73;;;6.80;99.90;;;;;;5036358;28;25079;-71
2023/03/02 11:28:59;;;;;;;23.58;9.98;;;6.80;99.90;;;;;;5035063;28;25103;-73
2023/03/02 11:31:47;;;;;;;21.50;9.45;;;7.00;99.90;;;;;;5037587;28;25068;-73
2023/03/02 11:34:21;;;;;;;23.52;10.80;;;7.20;99.90;;;;;;5038215;28;25081;-73
2023/03/02 11:37:12;;;;;;;22.30;9.55;;;7.20;99.90;;;;;;5027035;28;25064;-73
2023/03/02 11:39:51;;;;;;;21.75;9.45;;;7.40;99.90;;;;;;5038036;28;25069;-72
2023/03/02 11:42:23;;;;;;;20.20;8.40;;;7.40;99.90;;;;;;5036245;28;25108;-73
2023/03/02 11:44:49;;;;;;;24.35;9.23;;;7.60;99.90;;;;;;5036113;28;25109;-72
2023/03/02 11:47:18;;;;;;;16.60;8.68;;;7.40;99.90;;;;;;5022839;28;25069;-74
2023/03/02 11:49:51;;;;;;;19.33;9.07;;;7.50;99.90;;;;;;5036208;28;25093;-73
2023/03/02 11:52:27;;;;;;;28.98;9.60;;;7.60;99.90;;;;;;5035938;28;25076;-73
2023/03/02 11:55:04;;;;;;;26.10;9.52;;;7.50;99.90;;;;;;5038274;28;25055;-74
2023/03/02 11:57:34;;;;;;;23.73;9.82;;;7.90;99.90;;;;;;5041470;28;25063;-74
2023/03/02 12:00:17;;;;;;;17.27;8.98;;;8.10;99.90;;;;;;5040383;28;25104;-72
2023/03/02 12:02:44;;;;;;;23.23;9.40;;;8.20;99.90;;;;;;5040831;28;25075;-71
2023/03/02 12:05:29;;;;;;;21.77;9.82;;;8.40;99.90;;;;;;5042294;28;25082;-75
2023/03/02 12:08:26;;;;;;;17.38;8.13;;;8.30;99.90;;;;;;5040291;28;25100;-76
2023/03/02 12:10:57;;;;;;;17.52;8.13;;;8.20;99.90;;;;;;5038085;28;25066;-72
2023/03/02 12:13:29;;;;;;;17.65;8.75;;;8.20;99.90;;;;;;5042983;28;25147;-72
2023/03/02 12:15:55;;;;;;;20.90;8.80;;;8.30;99.90;;;;;;5043372;28;25071;-73
2023/03/02 12:18:21;;;;;;;19.10;9.20;;;8.50;99.90;;;;;;5040660;28;25072;-73
2023/03/02 12:21:06;;;;;;;17.73;8.05;;;8.40;99.90;;;;;;5044198;28;25097;-75
2023/03/02 12:23:34;;;;;;;21.08;8.98;;;8.60;99.90;;;;;;5047116;28;25082;-71
2023/03/02 12:26:03;;;;;;;17.30;7.95;;;8.40;99.90;;;;;;5044548;28;25060;-73
2023/03/02 12:28:34;;;;;;;20.88;8.10;;;8.70;99.90;;;;;;5046770;28;25067;-76
2023/03/02 12:31:09;;;;;;;16.90;7.80;;;9.20;99.90;;;;;;5034434;28;25052;-73
2023/03/02 12:33:50;;;;;;;21.20;7.78;;;9.00;99.90;;;;;;5040354;28;25062;-74
2023/03/02 12:36:28;;;;;;;17.00;7.72;;;8.90;99.90;;;;;;5047711;28;25075;-74
2023/03/02 12:39:18;;;;;;;16.80;8.68;;;9.20;99.90;;;;;;5047236;28;25062;-75
2023/03/02 12:42:31;;;;;;;16.73;7.90;;;9.30;99.90;;;;;;5042362;28;25059;-76
2023/03/02 12:45:12;;;;;;;16.17;6.60;;;9.50;99.90;;;;;;5041286;28;25077;-71
2023/03/02 12:47:42;;;;;;;14.68;6.72;;;9.30;99.90;;;;;;5037054;28;25117;-74
2023/03/02 12:50:26;;;;;;;18.15;7.32;;;9.20;25.00;;;;;;5027273;28;25065;-74